sensor_id;sensor_type;location;lat;lon;timestamp;P1;durP1;ratioP1;P2;durP2;ratioP2
45344;SDS011;31078;48.304;11.896;2023-05-01T00:00:46;10.20;;;4.90;;
45344;SDS011;31078;48.304;11.896;2023-05-01T00:03:13;12.35;;;5.45;;
45344;SDS011;31078;48.304;11.896;2023-05-01T00:05:39;12.38;;;5.47;;
45344;SDS011;31078;48.304;11.896;2023-05-01T00:08:06;12.65;;;5.25;;
45344;SDS011;31078;48.304;11.896;2023-05-01T00:10:33;10.98;;;5.50;;
45344;SDS011;31078;48.304;11.896;2023-05-01T00:13:01;10.60;;;5.00;;
45344;SDS011;31078;48.304;11.896;2023-05-01T00:15:28;9.98;;;4.95;;
45344;SDS011;31078;48.304;11.896;2023-05-01T00:17:57;13.02;;;5.47;;
45344;SDS011;31078;48.304;11.896;2023-05-01T00:20:25;10.93;;;4.68;;
45344;SDS011;31078;48.304;11.896;2023-05-01T00:22:51;15.15;;;6.07;;
45344;SDS011;31078;48.304;11.896;2023-05-01T00:25:18;13.80;;;5.63;;
45344;SDS011;31078;48.304;11.896;2023-05-01T00:27:44;8.57;;;4.90;;
45344;SDS011;31078;48.304;11.896;2023-05-01T00:30:13;11.65;;;5.32;;
45344;SDS011;31078;48.304;11.896;2023-05-01T00:32:39;7.50;;;4.70;;
45344;SDS011;31078;48.304;11.896;2023-05-01T00:35:06;13.65;;;5.78;;
45344;SDS011;31078;48.304;11.896;2023-05-01T00:37:33;12.07;;;5.60;;
45344;SDS011;31078;48.304;11.896;2023-05-01T00:39:59;14.02;;;6.38;;
45344;SDS011;31078;48.304;11.896;2023-05-01T00:42:26;14.27;;;6.07;;
45344;SDS011;31078;48.304;11.896;2023-05-01T00:44:52;16.17;;;6.45;;
45344;SDS011;31078;48.304;11.896;2023-05-01T00:47:20;13.52;;;5.57;;
45344;SDS011;31078;48.304;11.896;2023-05-01T00:49:46;14.30;;;5.68;;
45344;SDS011;31078;48.304;11.896;2023-05-01T00:52:15;10.63;;;5.03;;
45344;SDS011;31078;48.304;11.896;2023-05-01T00:54:41;16.55;;;6.72;;
45344;SDS011;31078;48.304;11.896;2023-05-01T00:57:08;11.70;;;5.45;;
45344;SDS011;31078;48.304;11.896;2023-05-01T00:59:35;11.88;;;5.70;;
45344;SDS011;31078;48.304;11.896;2023-05-01T01:02:03;13.32;;;5.68;;
45344;SDS011;31078;48.304;11.896;2023-05-01T01:04:32;12.07;;;5.70;;
45344;SDS011;31078;48.304;11.896;2023-05-01T01:07:01;12.07;;;5.50;;
45344;SDS011;31078;48.304;11.896;2023-05-01T01:09:35;11.05;;;5.00;;
45344;SDS011;31078;48.304;11.896;2023-05-01T01:12:07;15.25;;;6.10;;
45344;SDS011;31078;48.304;11.896;2023-05-01T01:14:41;11.35;;;5.47;;
45344;SDS011;31078;48.304;11.896;2023-05-01T01:17:16;13.60;;;5.75;;
45344;SDS011;31078;48.304;11.896;2023-05-01T01:22:50;9.40;;;5.22;;
45344;SDS011;31078;48.304;11.896;2023-05-01T01:25:28;10.43;;;5.95;;
45344;SDS011;31078;48.304;11.896;2023-05-01T01:28:15;7.72;;;4.97;;
45344;SDS011;31078;48.304;11.896;2023-05-01T01:31:03;10.57;;;5.20;;
45344;SDS011;31078;48.304;11.896;2023-05-01T01:33:57;13.30;;;5.93;;
45344;SDS011;31078;48.304;11.896;2023-05-01T01:36:33;11.00;;;5.38;;
45344;SDS011;31078;48.304;11.896;2023-05-01T01:39:07;14.10;;;5.85;;
45344;SDS011;31078;48.304;11.896;2023-05-01T01:41:38;11.10;;;5.55;;
45344;SDS011;31078;48.304;11.896;2023-05-01T01:44:07;12.00;;;5.65;;
45344;SDS011;31078;48.304;11.896;2023-05-01T01:46:38;13.40;;;6.50;;
45344;SDS011;31078;48.304;11.896;2023-05-01T01:49:10;20.20;;;7.38;;
45344;SDS011;31078;48.304;11.896;2023-05-01T01:51:42;11.88;;;5.70;;
45344;SDS011;31078;48.304;11.896;2023-05-01T01:54:10;11.40;;;5.65;;
45344;SDS011;31078;48.304;11.896;2023-05-01T01:56:40;14.07;;;5.75;;
45344;SDS011;31078;48.304;11.896;2023-05-01T01:59:07;14.40;;;6.55;;
45344;SDS011;31078;48.304;11.896;2023-05-01T02:01:36;13.07;;;6.07;;
45344;SDS011;31078;48.304;11.896;2023-05-01T02:04:05;15.95;;;6.15;;
45344;SDS011;31078;48.304;11.896;2023-05-01T02:06:34;17.45;;;6.60;;
45344;SDS011;31078;48.304;11.896;2023-05-01T02:09:04;11.20;;;5.78;;
45344;SDS011;31078;48.304;11.896;2023-05-01T02:11:31;14.10;;;6.40;;
45344;SDS011;31078;48.304;11.896;2023-05-01T02:14:01;14.07;;;6.45;;
45344;SDS011;31078;48.304;11.896;2023-05-01T02:16:28;11.98;;;6.30;;
45344;SDS011;31078;48.304;11.896;2023-05-01T02:18:58;11.98;;;5.70;;
45344;SDS011;31078;48.304;11.896;2023-05-01T02:21:26;15.25;;;6.72;;
45344;SDS011;31078;48.304;11.896;2023-05-01T02:23:56;11.00;;;5.78;;
45344;SDS011;31078;48.304;11.896;2023-05-01T02:26:27;12.55;;;5.93;;
45344;SDS011;31078;48.304;11.896;2023-05-01T02:28:54;10.23;;;5.57;;
45344;SDS011;31078;48.304;11.896;2023-05-01T02:31:21;16.30;;;7.00;;
45344;SDS011;31078;48.304;11.896;2023-05-01T02:33:48;15.55;;;6.75;;
45344;SDS011;31078;48.304;11.896;2023-05-01T02:36:14;13.10;;;6.20;;
45344;SDS011;31078;48.304;11.896;2023-05-01T02:38:40;13.07;;;5.63;;
45344;SDS011;31078;48.304;11.896;2023-05-01T02:41:09;13.70;;;5.93;;
45344;SDS011;31078;48.304;11.896;2023-05-01T02:43:36;12.57;;;5.88;;
45344;SDS011;31078;48.304;11.896;2023-05-01T02:46:06;11.45;;;5.80;;
45344;SDS011;31078;48.304;11.896;2023-05-01T02:48:35;12.75;;;6.57;;
45344;SDS011;31078;48.304;11.896;2023-05-01T02:51:03;10.50;;;6.07;;
45344;SDS011;31078;48.304;11.896;2023-05-01T02:53:32;11.40;;;6.20;;
45344;SDS011;31078;48.304;11.896;2023-05-01T02:55:58;15.57;;;6.78;;
45344;SDS011;31078;48.304;11.896;2023-05-01T02:58:29;11.57;;;6.20;;
45344;SDS011;31078;48.304;11.896;2023-05-01T03:00:56;13.38;;;6.05;;
45344;SDS011;31078;48.304;11.896;2023-05-01T03:03:22;15.50;;;7.70;;
45344;SDS011;31078;48.304;11.896;2023-05-01T03:05:49;11.48;;;6.05;;
45344;SDS011;31078;48.304;11.896;2023-05-01T03:08:16;8.57;;;5.43;;
45344;SDS011;31078;48.304;11.896;2023-05-01T03:10:42;13.00;;;7.05;;
45344;SDS011;31078;48.304;11.896;2023-05-01T03:13:09;13.02;;;6.22;;
45344;SDS011;31078;48.304;11.896;2023-05-01T03:15:37;8.82;;;5.78;;
45344;SDS011;31078;48.304;11.896;2023-05-01T03:18:05;11.77;;;6.57;;
45344;SDS011;31078;48.304;11.896;2023-05-01T03:20:33;11.02;;;5.72;;
45344;SDS011;31078;48.304;11.896;2023-05-01T03:22:59;11.63;;;6.22;;
45344;SDS011;31078;48.304;11.896;2023-05-01T03:25:26;12.13;;;5.90;;
45344;SDS011;31078;48.304;11.896;2023-05-01T03:27:53;10.95;;;6.30;;
45344;SDS011;31078;48.304;11.896;2023-05-01T03:30:19;12.18;;;6.57;;
45344;SDS011;31078;48.304;11.896;2023-05-01T03:32:47;13.02;;;6.97;;
45344;SDS011;31078;48.304;11.896;2023-05-01T03:35:14;12.70;;;7.07;;
45344;SDS011;31078;48.304;11.896;2023-05-01T03:37:40;11.63;;;6.75;;
45344;SDS011;31078;48.304;11.896;2023-05-01T03:40:07;11.52;;;6.35;;
45344;SDS011;31078;48.304;11.896;2023-05-01T03:42:34;11.65;;;5.90;;
45344;SDS011;31078;48.304;11.896;2023-05-01T03:45:00;13.50;;;7.22;;
45344;SDS011;31078;48.304;11.896;2023-05-01T03:47:27;10.63;;;6.28;;
45344;SDS011;31078;48.304;11.896;2023-05-01T03:49:55;12.77;;;6.72;;
45344;SDS011;31078;48.304;11.896;2023-05-01T03:52:22;11.25;;;6.50;;
45344;SDS011;31078;48.304;11.896;2023-05-01T03:54:48;13.45;;;7.13;;
45344;SDS011;31078;48.304;11.896;2023-05-01T03:57:15;12.07;;;6.50;;
45344;SDS011;31078;48.304;11.896;2023-05-01T03:59:41;14.00;;;6.88;;
45344;SDS011;31078;48.304;11.896;2023-05-01T04:02:08;15.57;;;7.82;;
45344;SDS011;31078;48.304;11.896;2023-05-01T04:04:35;11.43;;;6.45;;
45344;SDS011;31078;48.304;11.896;2023-05-01T04:07:03;9.73;;;6.10;;
45344;SDS011;31078;48.304;11.896;2023-05-01T04:09:30;12.60;;;7.03;;
45344;SDS011;31078;48.304;11.896;2023-05-01T04:11:56;12.20;;;6.80;;
45344;SDS011;31078;48.304;11.896;2023-05-01T04:14:23;9.48;;;6.40;;
45344;SDS011;31078;48.304;11.896;2023-05-01T04:16:49;10.90;;;6.93;;
45344;SDS011;31078;48.304;11.896;2023-05-01T04:19:16;9.38;;;5.90;;
45344;SDS011;31078;48.304;11.896;2023-05-01T04:21:42;13.25;;;7.28;;
45344;SDS011;31078;48.304;11.896;2023-05-01T04:24:11;14.13;;;7.38;;
45344;SDS011;31078;48.304;11.896;2023-05-01T04:26:38;11.70;;;6.90;;
45344;SDS011;31078;48.304;11.896;2023-05-01T04:29:06;15.25;;;7.57;;
45344;SDS011;31078;48.304;11.896;2023-05-01T04:31:33;13.88;;;6.90;;
45344;SDS011;31078;48.304;11.896;2023-05-01T04:34:00;15.70;;;8.00;;
45344;SDS011;31078;48.304;11.896;2023-05-01T04:36:26;12.05;;;7.20;;
45344;SDS011;31078;48.304;11.896;2023-05-01T04:38:53;12.88;;;6.75;;
45344;SDS011;31078;48.304;11.896;2023-05-01T04:41:21;16.25;;;8.00;;
45344;SDS011;31078;48.304;11.896;2023-05-01T04:43:47;13.77;;;6.65;;
45344;SDS011;31078;48.304;11.896;2023-05-01T04:46:14;16.13;;;7.60;;
45344;SDS011;31078;48.304;11.896;2023-05-01T04:48:41;12.25;;;6.97;;
45344;SDS011;31078;48.304;11.896;2023-05-01T04:51:07;11.25;;;7.25;;
45344;SDS011;31078;48.304;11.896;2023-05-01T04:53:34;11.43;;;7.45;;
45344;SDS011;31078;48.304;11.896;2023-05-01T04:56:00;13.35;;;7.72;;
45344;SDS011;31078;48.304;11.896;2023-05-01T04:58:28;11.57;;;7.70;;
45344;SDS011;31078;48.304;11.896;2023-05-01T05:00:55;14.85;;;7.55;;
45344;SDS011;31078;48.304;11.896;2023-05-01T05:03:21;14.50;;;8.43;;
45344;SDS011;31078;48.304;11.896;2023-05-01T05:05:48;12.48;;;7.53;;
45344;SDS011;31078;48.304;11.896;2023-05-01T05:08:14;13.25;;;8.05;;
45344;SDS011;31078;48.304;11.896;2023-05-01T05:10:41;13.70;;;8.18;;
45344;SDS011;31078;48.304;11.896;2023-05-01T05:13:07;11.35;;;7.07;;
45344;SDS011;31078;48.304;11.896;2023-05-01T05:15:36;11.50;;;7.30;;
45344;SDS011;31078;48.304;11.896;2023-05-01T05:18:02;13.32;;;7.63;;
45344;SDS011;31078;48.304;11.896;2023-05-01T05:20:29;16.17;;;8.80;;
45344;SDS011;31078;48.304;11.896;2023-05-01T05:22:55;11.65;;;7.30;;
45344;SDS011;31078;48.304;11.896;2023-05-01T05:25:22;14.95;;;7.90;;
45344;SDS011;31078;48.304;11.896;2023-05-01T05:27:49;10.68;;;7.25;;
45344;SDS011;31078;48.304;11.896;2023-05-01T05:30:16;13.95;;;8.13;;
45344;SDS011;31078;48.304;11.896;2023-05-01T05:32:44;13.40;;;7.65;;
45344;SDS011;31078;48.304;11.896;2023-05-01T05:35:11;11.23;;;7.32;;
45344;SDS011;31078;48.304;11.896;2023-05-01T05:37:38;12.00;;;7.20;;
45344;SDS011;31078;48.304;11.896;2023-05-01T05:40:04;12.15;;;7.93;;
45344;SDS011;31078;48.304;11.896;2023-05-01T05:42:32;11.38;;;7.65;;
45344;SDS011;31078;48.304;11.896;2023-05-01T05:44:59;13.38;;;8.05;;
45344;SDS011;31078;48.304;11.896;2023-05-01T05:47:25;13.10;;;8.02;;
45344;SDS011;31078;48.304;11.896;2023-05-01T05:49:53;13.85;;;8.00;;
45344;SDS011;31078;48.304;11.896;2023-05-01T05:52:20;11.57;;;7.55;;
45344;SDS011;31078;48.304;11.896;2023-05-01T05:54:47;12.80;;;8.02;;
45344;SDS011;31078;48.304;11.896;2023-05-01T05:57:13;12.45;;;7.72;;
45344;SDS011;31078;48.304;11.896;2023-05-01T05:59:40;14.15;;;7.95;;
45344;SDS011;31078;48.304;11.896;2023-05-01T06:02:06;14.45;;;8.45;;
45344;SDS011;31078;48.304;11.896;2023-05-01T06:04:33;13.18;;;7.97;;
45344;SDS011;31078;48.304;11.896;2023-05-01T06:07:00;11.45;;;8.00;;
45344;SDS011;31078;48.304;11.896;2023-05-01T06:09:27;14.48;;;8.90;;
45344;SDS011;31078;48.304;11.896;2023-05-01T06:11:54;12.77;;;8.32;;
45344;SDS011;31078;48.304;11.896;2023-05-01T06:14:22;14.23;;;7.35;;
45344;SDS011;31078;48.304;11.896;2023-05-01T06:16:48;13.38;;;8.07;;
45344;SDS011;31078;48.304;11.896;2023-05-01T06:19:15;10.50;;;7.72;;
45344;SDS011;31078;48.304;11.896;2023-05-01T06:21:41;10.95;;;7.65;;
45344;SDS011;31078;48.304;11.896;2023-05-01T06:24:09;14.77;;;7.95;;
45344;SDS011;31078;48.304;11.896;2023-05-01T06:26:36;11.48;;;7.10;;
45344;SDS011;31078;48.304;11.896;2023-05-01T06:29:03;11.45;;;8.13;;
45344;SDS011;31078;48.304;11.896;2023-05-01T06:31:29;11.25;;;7.65;;
45344;SDS011;31078;48.304;11.896;2023-05-01T06:33:56;10.40;;;6.78;;
45344;SDS011;31078;48.304;11.896;2023-05-01T06:36:22;11.23;;;7.13;;
45344;SDS011;31078;48.304;11.896;2023-05-01T06:38:48;11.27;;;7.18;;
45344;SDS011;31078;48.304;11.896;2023-05-01T06:41:16;11.27;;;7.57;;
45344;SDS011;31078;48.304;11.896;2023-05-01T06:43:43;10.93;;;7.07;;
45344;SDS011;31078;48.304;11.896;2023-05-01T06:46:09;11.73;;;7.60;;
45344;SDS011;31078;48.304;11.896;2023-05-01T06:48:36;10.27;;;7.65;;
45344;SDS011;31078;48.304;11.896;2023-05-01T06:51:03;11.05;;;7.00;;
45344;SDS011;31078;48.304;11.896;2023-05-01T06:53:29;12.25;;;7.18;;
45344;SDS011;31078;48.304;11.896;2023-05-01T06:55:56;10.13;;;7.28;;
45344;SDS011;31078;48.304;11.896;2023-05-01T06:58:24;10.13;;;7.45;;
45344;SDS011;31078;48.304;11.896;2023-05-01T07:00:51;10.43;;;7.53;;
45344;SDS011;31078;48.304;11.896;2023-05-01T07:03:18;11.88;;;7.75;;
45344;SDS011;31078;48.304;11.896;2023-05-01T07:05:45;11.27;;;7.85;;
45344;SDS011;31078;48.304;11.896;2023-05-01T07:08:11;11.32;;;7.78;;
45344;SDS011;31078;48.304;11.896;2023-05-01T07:10:38;8.90;;;6.97;;
45344;SDS011;31078;48.304;11.896;2023-05-01T07:13:04;8.90;;;6.38;;
45344;SDS011;31078;48.304;11.896;2023-05-01T07:15:32;12.23;;;8.43;;
45344;SDS011;31078;48.304;11.896;2023-05-01T07:17:59;12.90;;;7.75;;
45344;SDS011;31078;48.304;11.896;2023-05-01T07:20:26;10.35;;;7.07;;
45344;SDS011;31078;48.304;11.896;2023-05-01T07:22:53;15.82;;;8.45;;
45344;SDS011;31078;48.304;11.896;2023-05-01T07:25:19;12.10;;;8.07;;
45344;SDS011;31078;48.304;11.896;2023-05-01T07:27:46;10.90;;;7.25;;
45344;SDS011;31078;48.304;11.896;2023-05-01T07:30:13;12.40;;;7.82;;
45344;SDS011;31078;48.304;11.896;2023-05-01T07:32:40;10.00;;;7.10;;
45344;SDS011;31078;48.304;11.896;2023-05-01T07:35:07;15.43;;;7.97;;
45344;SDS011;31078;48.304;11.896;2023-05-01T07:37:34;9.82;;;6.95;;
45344;SDS011;31078;48.304;11.896;2023-05-01T07:40:00;10.98;;;7.32;;
45344;SDS011;31078;48.304;11.896;2023-05-01T07:42:27;12.45;;;7.85;;
45344;SDS011;31078;48.304;11.896;2023-05-01T07:44:54;11.23;;;7.78;;
45344;SDS011;31078;48.304;11.896;2023-05-01T07:47:21;12.02;;;8.60;;
45344;SDS011;31078;48.304;11.896;2023-05-01T07:49:49;11.40;;;7.90;;
45344;SDS011;31078;48.304;11.896;2023-05-01T07:52:15;10.55;;;7.20;;
45344;SDS011;31078;48.304;11.896;2023-05-01T07:54:42;14.00;;;8.30;;
45344;SDS011;31078;48.304;11.896;2023-05-01T07:57:08;12.63;;;6.68;;
45344;SDS011;31078;48.304;11.896;2023-05-01T07:59:35;11.68;;;6.80;;
45344;SDS011;31078;48.304;11.896;2023-05-01T08:02:01;11.65;;;8.27;;
45344;SDS011;31078;48.304;11.896;2023-05-01T08:04:28;12.63;;;7.65;;
45344;SDS011;31078;48.304;11.896;2023-05-01T08:06:56;14.75;;;8.00;;
45344;SDS011;31078;48.304;11.896;2023-05-01T08:09:22;9.95;;;6.70;;
45344;SDS011;31078;48.304;11.896;2023-05-01T08:11:49;13.50;;;6.55;;
45344;SDS011;31078;48.304;11.896;2023-05-01T08:14:15;11.55;;;6.28;;
45344;SDS011;31078;48.304;11.896;2023-05-01T08:16:43;12.13;;;7.38;;
45344;SDS011;31078;48.304;11.896;2023-05-01T08:19:09;11.35;;;6.55;;
45344;SDS011;31078;48.304;11.896;2023-05-01T08:21:36;11.30;;;7.13;;
45344;SDS011;31078;48.304;11.896;2023-05-01T08:24:07;9.93;;;6.68;;
45344;SDS011;31078;48.304;11.896;2023-05-01T08:26:34;8.57;;;6.43;;
45344;SDS011;31078;48.304;11.896;2023-05-01T08:29:01;12.30;;;7.15;;
45344;SDS011;31078;48.304;11.896;2023-05-01T08:31:28;12.50;;;8.25;;
45344;SDS011;31078;48.304;11.896;2023-05-01T08:33:54;10.68;;;7.68;;
45344;SDS011;31078;48.304;11.896;2023-05-01T08:36:21;12.30;;;7.22;;
45344;SDS011;31078;48.304;11.896;2023-05-01T08:38:47;12.77;;;7.70;;
45344;SDS011;31078;48.304;11.896;2023-05-01T08:41:15;10.90;;;7.78;;
45344;SDS011;31078;48.304;11.896;2023-05-01T08:43:46;10.10;;;7.18;;
45344;SDS011;31078;48.304;11.896;2023-05-01T08:46:14;10.63;;;7.45;;
45344;SDS011;31078;48.304;11.896;2023-05-01T08:48:50;12.50;;;7.63;;
45344;SDS011;31078;48.304;11.896;2023-05-01T08:51:19;10.98;;;7.50;;
45344;SDS011;31078;48.304;11.896;2023-05-01T08:53:47;11.10;;;7.75;;
45344;SDS011;31078;48.304;11.896;2023-05-01T08:56:19;8.23;;;6.80;;
45344;SDS011;31078;48.304;11.896;2023-05-01T08:58:47;9.52;;;7.38;;
45344;SDS011;31078;48.304;11.896;2023-05-01T09:01:15;12.00;;;7.35;;
45344;SDS011;31078;48.304;11.896;2023-05-01T09:03:48;13.25;;;7.80;;
45344;SDS011;31078;48.304;11.896;2023-05-01T09:06:16;10.48;;;7.72;;
45344;SDS011;31078;48.304;11.896;2023-05-01T09:08:44;10.77;;;7.40;;
45344;SDS011;31078;48.304;11.896;2023-05-01T09:11:10;10.18;;;6.75;;
45344;SDS011;31078;48.304;11.896;2023-05-01T09:13:41;11.15;;;7.10;;
45344;SDS011;31078;48.304;11.896;2023-05-01T09:16:07;10.35;;;7.07;;
45344;SDS011;31078;48.304;11.896;2023-05-01T09:18:36;12.73;;;7.40;;
45344;SDS011;31078;48.304;11.896;2023-05-01T09:21:07;9.75;;;7.20;;
45344;SDS011;31078;48.304;11.896;2023-05-01T09:23:34;10.82;;;7.47;;
45344;SDS011;31078;48.304;11.896;2023-05-01T09:26:05;12.60;;;7.30;;
45344;SDS011;31078;48.304;11.896;2023-05-01T09:28:39;11.20;;;8.48;;
45344;SDS011;31078;48.304;11.896;2023-05-01T09:31:21;10.93;;;7.63;;
45344;SDS011;31078;48.304;11.896;2023-05-01T09:33:51;10.63;;;7.80;;
45344;SDS011;31078;48.304;11.896;2023-05-01T09:38:49;12.20;;;7.95;;
45344;SDS011;31078;48.304;11.896;2023-05-01T09:41:16;12.25;;;8.38;;
45344;SDS011;31078;48.304;11.896;2023-05-01T09:43:49;13.77;;;8.32;;
45344;SDS011;31078;48.304;11.896;2023-05-01T09:46:17;12.50;;;8.45;;
45344;SDS011;31078;48.304;11.896;2023-05-01T09:48:51;10.15;;;7.68;;
45344;SDS011;31078;48.304;11.896;2023-05-01T09:51:19;14.00;;;9.50;;
45344;SDS011;31078;48.304;11.896;2023-05-01T09:53:47;13.30;;;9.18;;
45344;SDS011;31078;48.304;11.896;2023-05-01T09:56:14;13.95;;;8.82;;
45344;SDS011;31078;48.304;11.896;2023-05-01T09:58:41;11.05;;;7.68;;
45344;SDS011;31078;48.304;11.896;2023-05-01T10:01:09;13.15;;;8.75;;
45344;SDS011;31078;48.304;11.896;2023-05-01T10:03:36;13.32;;;7.85;;
45344;SDS011;31078;48.304;11.896;2023-05-01T10:06:03;13.23;;;9.25;;
45344;SDS011;31078;48.304;11.896;2023-05-01T10:08:42;13.18;;;8.00;;
45344;SDS011;31078;48.304;11.896;2023-05-01T10:11:10;11.60;;;8.50;;
45344;SDS011;31078;48.304;11.896;2023-05-01T10:13:36;15.60;;;9.15;;
45344;SDS011;31078;48.304;11.896;2023-05-01T10:16:03;12.15;;;8.18;;
45344;SDS011;31078;48.304;11.896;2023-05-01T10:18:33;12.68;;;8.75;;
45344;SDS011;31078;48.304;11.896;2023-05-01T10:21:01;11.95;;;7.65;;
45344;SDS011;31078;48.304;11.896;2023-05-01T10:23:28;12.65;;;8.65;;
45344;SDS011;31078;48.304;11.896;2023-05-01T10:25:54;14.48;;;8.48;;
45344;SDS011;31078;48.304;11.896;2023-05-01T10:28:22;12.65;;;9.05;;
45344;SDS011;31078;48.304;11.896;2023-05-01T10:30:52;13.43;;;8.75;;
45344;SDS011;31078;48.304;11.896;2023-05-01T10:33:20;12.98;;;9.02;;
45344;SDS011;31078;48.304;11.896;2023-05-01T10:35:53;9.32;;;7.53;;
45344;SDS011;31078;48.304;11.896;2023-05-01T10:38:22;14.88;;;9.60;;
45344;SDS011;31078;48.304;11.896;2023-05-01T10:43:22;15.05;;;8.90;;
45344;SDS011;31078;48.304;11.896;2023-05-01T10:45:53;13.63;;;8.57;;
45344;SDS011;31078;48.304;11.896;2023-05-01T10:48:56;11.95;;;9.50;;
45344;SDS011;31078;48.304;11.896;2023-05-01T10:51:24;15.43;;;9.32;;
45344;SDS011;31078;48.304;11.896;2023-05-01T10:56:51;11.60;;;8.10;;
45344;SDS011;31078;48.304;11.896;2023-05-01T10:59:17;13.32;;;8.32;;
45344;SDS011;31078;48.304;11.896;2023-05-01T11:01:44;15.00;;;9.32;;
45344;SDS011;31078;48.304;11.896;2023-05-01T11:07:14;12.00;;;8.30;;
45344;SDS011;31078;48.304;11.896;2023-05-01T11:09:42;19.00;;;8.65;;
45344;SDS011;31078;48.304;11.896;2023-05-01T11:12:10;11.95;;;9.52;;
45344;SDS011;31078;48.304;11.896;2023-05-01T11:17:44;14.65;;;9.32;;
45344;SDS011;31078;48.304;11.896;2023-05-01T11:20:11;13.40;;;8.38;;
45344;SDS011;31078;48.304;11.896;2023-05-01T11:22:43;13.00;;;9.32;;
45344;SDS011;31078;48.304;11.896;2023-05-01T11:25:17;13.70;;;9.95;;
45344;SDS011;31078;48.304;11.896;2023-05-01T11:27:46;14.30;;;9.98;;
45344;SDS011;31078;48.304;11.896;2023-05-01T11:30:13;11.75;;;9.07;;
45344;SDS011;31078;48.304;11.896;2023-05-01T11:32:41;13.13;;;9.48;;
45344;SDS011;31078;48.304;11.896;2023-05-01T11:35:14;13.90;;;9.77;;
45344;SDS011;31078;48.304;11.896;2023-05-01T11:37:44;12.63;;;9.85;;
45344;SDS011;31078;48.304;11.896;2023-05-01T11:40:20;13.00;;;9.93;;
45344;SDS011;31078;48.304;11.896;2023-05-01T11:42:48;12.65;;;9.52;;
45344;SDS011;31078;48.304;11.896;2023-05-01T11:45:16;13.40;;;9.07;;
45344;SDS011;31078;48.304;11.896;2023-05-01T11:47:43;13.63;;;9.95;;
45344;SDS011;31078;48.304;11.896;2023-05-01T11:50:10;11.05;;;8.63;;
45344;SDS011;31078;48.304;11.896;2023-05-01T11:52:40;13.32;;;8.43;;
45344;SDS011;31078;48.304;11.896;2023-05-01T11:55:10;15.27;;;10.20;;
45344;SDS011;31078;48.304;11.896;2023-05-01T11:57:49;12.65;;;9.25;;
45344;SDS011;31078;48.304;11.896;2023-05-01T12:00:24;12.77;;;8.98;;
45344;SDS011;31078;48.304;11.896;2023-05-01T12:02:56;12.07;;;8.82;;
45344;SDS011;31078;48.304;11.896;2023-05-01T12:05:24;12.25;;;9.63;;
45344;SDS011;31078;48.304;11.896;2023-05-01T12:07:50;13.65;;;10.07;;
45344;SDS011;31078;48.304;11.896;2023-05-01T12:10:32;13.68;;;9.85;;
45344;SDS011;31078;48.304;11.896;2023-05-01T12:12:59;12.55;;;9.93;;
45344;SDS011;31078;48.304;11.896;2023-05-01T12:15:27;13.70;;;9.77;;
45344;SDS011;31078;48.304;11.896;2023-05-01T12:17:53;13.80;;;8.98;;
45344;SDS011;31078;48.304;11.896;2023-05-01T12:20:32;12.75;;;10.00;;
45344;SDS011;31078;48.304;11.896;2023-05-01T12:22:59;13.13;;;10.10;;
45344;SDS011;31078;48.304;11.896;2023-05-01T12:25:29;13.45;;;9.90;;
45344;SDS011;31078;48.304;11.896;2023-05-01T12:27:57;12.35;;;9.82;;
45344;SDS011;31078;48.304;11.896;2023-05-01T12:30:24;14.57;;;10.48;;
45344;SDS011;31078;48.304;11.896;2023-05-01T12:32:51;14.52;;;9.80;;
45344;SDS011;31078;48.304;11.896;2023-05-01T12:35:18;14.95;;;10.27;;
45344;SDS011;31078;48.304;11.896;2023-05-01T12:37:45;14.45;;;10.55;;
45344;SDS011;31078;48.304;11.896;2023-05-01T12:40:12;15.52;;;10.20;;
45344;SDS011;31078;48.304;11.896;2023-05-01T12:42:39;16.38;;;11.63;;
45344;SDS011;31078;48.304;11.896;2023-05-01T12:45:08;12.05;;;9.73;;
45344;SDS011;31078;48.304;11.896;2023-05-01T12:47:39;14.55;;;10.10;;
45344;SDS011;31078;48.304;11.896;2023-05-01T12:50:06;12.38;;;9.57;;
45344;SDS011;31078;48.304;11.896;2023-05-01T12:52:35;14.93;;;10.43;;
45344;SDS011;31078;48.304;11.896;2023-05-01T12:55:02;12.18;;;9.85;;
45344;SDS011;31078;48.304;11.896;2023-05-01T12:57:31;14.23;;;9.38;;
45344;SDS011;31078;48.304;11.896;2023-05-01T12:59:58;12.68;;;9.65;;
45344;SDS011;31078;48.304;11.896;2023-05-01T13:02:29;12.65;;;9.55;;
45344;SDS011;31078;48.304;11.896;2023-05-01T13:05:06;13.10;;;10.02;;
45344;SDS011;31078;48.304;11.896;2023-05-01T13:07:34;15.35;;;9.82;;
45344;SDS011;31078;48.304;11.896;2023-05-01T13:10:02;15.38;;;11.52;;
45344;SDS011;31078;48.304;11.896;2023-05-01T13:12:30;15.73;;;10.30;;
45344;SDS011;31078;48.304;11.896;2023-05-01T13:14:57;15.15;;;10.52;;
45344;SDS011;31078;48.304;11.896;2023-05-01T13:17:25;13.30;;;9.95;;
45344;SDS011;31078;48.304;11.896;2023-05-01T13:19:54;13.25;;;10.25;;
45344;SDS011;31078;48.304;11.896;2023-05-01T13:22:28;13.60;;;9.75;;
45344;SDS011;31078;48.304;11.896;2023-05-01T13:24:58;15.40;;;11.10;;
45344;SDS011;31078;48.304;11.896;2023-05-01T13:27:27;17.42;;;11.15;;
45344;SDS011;31078;48.304;11.896;2023-05-01T13:29:53;23.40;;;12.60;;
45344;SDS011;31078;48.304;11.896;2023-05-01T13:32:22;19.50;;;11.45;;
45344;SDS011;31078;48.304;11.896;2023-05-01T13:34:49;14.55;;;9.77;;
45344;SDS011;31078;48.304;11.896;2023-05-01T13:37:17;15.93;;;10.85;;
45344;SDS011;31078;48.304;11.896;2023-05-01T13:39:43;13.45;;;10.68;;
45344;SDS011;31078;48.304;11.896;2023-05-01T13:42:11;13.93;;;10.25;;
45344;SDS011;31078;48.304;11.896;2023-05-01T13:44:42;14.88;;;10.30;;
45344;SDS011;31078;48.304;11.896;2023-05-01T13:47:10;13.23;;;9.95;;
45344;SDS011;31078;48.304;11.896;2023-05-01T13:49:40;15.40;;;10.07;;
45344;SDS011;31078;48.304;11.896;2023-05-01T13:52:09;14.80;;;9.52;;
45344;SDS011;31078;48.304;11.896;2023-05-01T13:54:39;13.43;;;9.68;;
45344;SDS011;31078;48.304;11.896;2023-05-01T13:57:06;14.55;;;10.02;;
45344;SDS011;31078;48.304;11.896;2023-05-01T13:59:35;15.07;;;9.88;;
45344;SDS011;31078;48.304;11.896;2023-05-01T14:02:05;14.07;;;9.88;;
45344;SDS011;31078;48.304;11.896;2023-05-01T14:04:43;13.05;;;9.25;;
45344;SDS011;31078;48.304;11.896;2023-05-01T14:07:09;14.00;;;9.90;;
45344;SDS011;31078;48.304;11.896;2023-05-01T14:09:36;12.82;;;9.18;;
45344;SDS011;31078;48.304;11.896;2023-05-01T14:12:07;13.82;;;9.65;;
45344;SDS011;31078;48.304;11.896;2023-05-01T14:14:33;13.20;;;9.48;;
45344;SDS011;31078;48.304;11.896;2023-05-01T14:17:01;13.35;;;9.63;;
45344;SDS011;31078;48.304;11.896;2023-05-01T14:19:27;14.13;;;10.07;;
45344;SDS011;31078;48.304;11.896;2023-05-01T14:21:54;14.82;;;9.27;;
45344;SDS011;31078;48.304;11.896;2023-05-01T14:24:22;12.77;;;8.73;;
45344;SDS011;31078;48.304;11.896;2023-05-01T14:26:49;11.82;;;9.13;;
45344;SDS011;31078;48.304;11.896;2023-05-01T14:29:20;14.07;;;9.68;;
45344;SDS011;31078;48.304;11.896;2023-05-01T14:31:48;12.25;;;8.68;;
45344;SDS011;31078;48.304;11.896;2023-05-01T14:34:16;11.23;;;8.23;;
45344;SDS011;31078;48.304;11.896;2023-05-01T14:36:43;11.38;;;8.50;;
45344;SDS011;31078;48.304;11.896;2023-05-01T14:39:10;12.30;;;9.20;;
45344;SDS011;31078;48.304;11.896;2023-05-01T14:41:38;12.88;;;8.50;;
45344;SDS011;31078;48.304;11.896;2023-05-01T14:44:10;12.30;;;8.68;;